• NOTAM LFNR

    Aucun NOTAM











  • PHOTOS SATELLITE

CARTE TEMSI

CARTE WINTEM

  • Vent en surface

  • Rafales en surface

  • ANIMATION RADAR

  • METAR/TAF LFML (MARSEILLE-PROVENCE)

    LFML 200430Z AUTO 13005KT CAVOK 17/10 Q1025 NOSIG

    TAF LFML 200200Z 2003/2109 VRB05KT CAVOK TX30/2013Z TN17/2004Z BECMG 2007/2009 16010KT PROB30 TEMPO 2012/2015 17015G25KT BECMG 2020/2022 VRB03KT BKN006

    METAR/TAF LFMY

    LFMY 200430Z AUTO 00000KT CAVOK 14/10 Q1026 NOSIG

    TAF LFMY 200414Z 2003/2103 VRB02KT CAVOK TX29/2012Z TN13/2004Z BECMG 2008/2010 19012KT BECMG 2018/2020 VRB02KT

RESERVATION

  • COMM' FFA

    FLASH SV : L'été arrive et les grandes chaleurs aussi !!!